CheckWX is a tool to help pilots better visualize weather data.  It is not intended as a substitute for an official pre-flight weather briefing.

15:44:56 UTC

KMAN METAR
Nampa Municipal Airport
Nampa, Idaho, USA
Current

30 mins ago

KMAN 291515Z AUTO 00000KT 10SM CLR 23/12 A2997 RMK A01
Observed
May-29 @ 15:15 UTC
Visibility
Flight Rules
VFR
Cloud Levels
  • Clear skies
Temperature
23°C / 73°F
Dewpoint
12°C / 54°F
Humidity
50%
Altimeter
29.97" Hg
Pressure
1014.92 hPa
Previous

50 mins ago

KMAN 291455Z AUTO 00000KT 10SM CLR 22/13 A2997 RMK A01
Observed
May-29 @ 14:55 UTC
Visibility
Flight Rules
VFR
Cloud Levels
  • Clear skies
Temperature
22°C / 72°F
Dewpoint
13°C / 55°F
Humidity
57%
Altimeter
29.97" Hg
Pressure
1014.92 hPa
Previous

1 hour ago

KMAN 291435Z AUTO 00000KT 10SM CLR 22/14 A2996 RMK A01
Observed
May-29 @ 14:35 UTC
Visibility
Flight Rules
VFR
Cloud Levels
  • Clear skies
Temperature
22°C / 72°F
Dewpoint
14°C / 57°F
Humidity
61%
Altimeter
29.96" Hg
Pressure
1014.52 hPa